sensor_id;sensor_type;location;lat;lon;timestamp;P1;durP1;ratioP1;P2;durP2;ratioP2
63218;SDS011;49320;52.512;13.448;2023-07-30T00:02:25;4.90;;;3.78;;
63218;SDS011;49320;52.512;13.448;2023-07-30T00:04:52;5.50;;;3.60;;
63218;SDS011;49320;52.512;13.448;2023-07-30T00:07:20;4.47;;;3.50;;
63218;SDS011;49320;52.512;13.448;2023-07-30T00:09:47;4.63;;;3.72;;
63218;SDS011;49320;52.512;13.448;2023-07-30T00:12:14;3.58;;;3.22;;
63218;SDS011;49320;52.512;13.448;2023-07-30T00:14:41;4.00;;;3.33;;
63218;SDS011;49320;52.512;13.448;2023-07-30T00:17:09;3.90;;;3.50;;
63218;SDS011;49320;52.512;13.448;2023-07-30T00:19:36;3.65;;;3.35;;
63218;SDS011;49320;52.512;13.448;2023-07-30T00:22:03;4.88;;;3.42;;
63218;SDS011;49320;52.512;13.448;2023-07-30T00:24:31;4.03;;;3.63;;
63218;SDS011;49320;52.512;13.448;2023-07-30T00:26:58;3.50;;;3.20;;
63218;SDS011;49320;52.512;13.448;2023-07-30T00:29:25;3.90;;;3.05;;
63218;SDS011;49320;52.512;13.448;2023-07-30T00:31:52;3.92;;;3.53;;
63218;SDS011;49320;52.512;13.448;2023-07-30T00:34:19;3.40;;;3.10;;
63218;SDS011;49320;52.512;13.448;2023-07-30T00:36:46;3.92;;;3.50;;
63218;SDS011;49320;52.512;13.448;2023-07-30T00:39:13;3.97;;;3.28;;
63218;SDS011;49320;52.512;13.448;2023-07-30T00:41:41;3.88;;;3.47;;
63218;SDS011;49320;52.512;13.448;2023-07-30T00:44:07;4.10;;;3.70;;
63218;SDS011;49320;52.512;13.448;2023-07-30T00:46:35;3.70;;;3.08;;
63218;SDS011;49320;52.512;13.448;2023-07-30T00:49:02;3.10;;;2.63;;
63218;SDS011;49320;52.512;13.448;2023-07-30T00:51:30;5.35;;;3.20;;
63218;SDS011;49320;52.512;13.448;2023-07-30T00:53:59;4.70;;;2.92;;
63218;SDS011;49320;52.512;13.448;2023-07-30T00:56:27;3.00;;;2.70;;
63218;SDS011;49320;52.512;13.448;2023-07-30T00:58:54;3.33;;;2.72;;
63218;SDS011;49320;52.512;13.448;2023-07-30T01:01:22;2.40;;;2.10;;
63218;SDS011;49320;52.512;13.448;2023-07-30T01:03:49;2.88;;;2.58;;
63218;SDS011;49320;52.512;13.448;2023-07-30T01:06:16;2.88;;;2.58;;
63218;SDS011;49320;52.512;13.448;2023-07-30T01:08:46;2.70;;;2.45;;
63218;SDS011;49320;52.512;13.448;2023-07-30T01:11:14;4.30;;;2.88;;
63218;SDS011;49320;52.512;13.448;2023-07-30T01:13:41;3.13;;;2.47;;
63218;SDS011;49320;52.512;13.448;2023-07-30T01:16:13;3.20;;;2.72;;
63218;SDS011;49320;52.512;13.448;2023-07-30T01:18:40;3.03;;;2.42;;
63218;SDS011;49320;52.512;13.448;2023-07-30T01:21:07;4.35;;;2.90;;
63218;SDS011;49320;52.512;13.448;2023-07-30T01:23:35;3.47;;;2.97;;
63218;SDS011;49320;52.512;13.448;2023-07-30T01:26:09;3.22;;;2.80;;
63218;SDS011;49320;52.512;13.448;2023-07-30T01:28:44;4.13;;;2.45;;
63218;SDS011;49320;52.512;13.448;2023-07-30T01:31:16;3.88;;;2.80;;
63218;SDS011;49320;52.512;13.448;2023-07-30T01:33:46;2.97;;;2.38;;
63218;SDS011;49320;52.512;13.448;2023-07-30T01:36:18;2.80;;;2.50;;
63218;SDS011;49320;52.512;13.448;2023-07-30T01:38:46;2.90;;;2.50;;
63218;SDS011;49320;52.512;13.448;2023-07-30T01:41:16;2.42;;;2.13;;
63218;SDS011;49320;52.512;13.448;2023-07-30T01:43:43;2.58;;;2.38;;
63218;SDS011;49320;52.512;13.448;2023-07-30T01:46:10;3.42;;;2.10;;
63218;SDS011;49320;52.512;13.448;2023-07-30T01:48:37;2.55;;;2.30;;
63218;SDS011;49320;52.512;13.448;2023-07-30T01:51:04;3.00;;;2.70;;
63218;SDS011;49320;52.512;13.448;2023-07-30T01:53:31;5.78;;;2.88;;
63218;SDS011;49320;52.512;13.448;2023-07-30T01:55:58;3.88;;;2.90;;
63218;SDS011;49320;52.512;13.448;2023-07-30T01:58:25;2.83;;;2.58;;
63218;SDS011;49320;52.512;13.448;2023-07-30T02:00:52;3.30;;;2.50;;
63218;SDS011;49320;52.512;13.448;2023-07-30T02:03:19;2.72;;;2.40;;
63218;SDS011;49320;52.512;13.448;2023-07-30T02:05:47;2.92;;;2.60;;
63218;SDS011;49320;52.512;13.448;2023-07-30T02:08:14;2.63;;;2.20;;
63218;SDS011;49320;52.512;13.448;2023-07-30T02:10:42;3.72;;;2.60;;
63218;SDS011;49320;52.512;13.448;2023-07-30T02:13:09;3.38;;;2.55;;
63218;SDS011;49320;52.512;13.448;2023-07-30T02:15:39;3.38;;;2.90;;
63218;SDS011;49320;52.512;13.448;2023-07-30T02:18:07;3.08;;;2.70;;
63218;SDS011;49320;52.512;13.448;2023-07-30T02:20:36;3.05;;;2.70;;
63218;SDS011;49320;52.512;13.448;2023-07-30T02:23:03;3.10;;;2.80;;
63218;SDS011;49320;52.512;13.448;2023-07-30T02:25:31;2.72;;;2.50;;
63218;SDS011;49320;52.512;13.448;2023-07-30T02:27:59;2.90;;;2.60;;
63218;SDS011;49320;52.512;13.448;2023-07-30T02:30:27;3.10;;;2.65;;
63218;SDS011;49320;52.512;13.448;2023-07-30T02:32:54;3.40;;;2.97;;
63218;SDS011;49320;52.512;13.448;2023-07-30T02:35:21;3.70;;;3.10;;
63218;SDS011;49320;52.512;13.448;2023-07-30T02:37:48;3.70;;;2.70;;
63218;SDS011;49320;52.512;13.448;2023-07-30T02:40:16;3.05;;;2.80;;
63218;SDS011;49320;52.512;13.448;2023-07-30T02:42:43;3.90;;;2.75;;
63218;SDS011;49320;52.512;13.448;2023-07-30T02:45:10;3.33;;;2.80;;
63218;SDS011;49320;52.512;13.448;2023-07-30T02:47:37;3.25;;;2.95;;
63218;SDS011;49320;52.512;13.448;2023-07-30T02:50:06;3.67;;;3.20;;
63218;SDS011;49320;52.512;13.448;2023-07-30T02:52:34;4.47;;;2.67;;
63218;SDS011;49320;52.512;13.448;2023-07-30T02:55:01;5.60;;;3.35;;
63218;SDS011;49320;52.512;13.448;2023-07-30T02:57:28;3.35;;;2.92;;
63218;SDS011;49320;52.512;13.448;2023-07-30T02:59:55;3.03;;;2.65;;
63218;SDS011;49320;52.512;13.448;2023-07-30T03:02:23;3.03;;;2.50;;
63218;SDS011;49320;52.512;13.448;2023-07-30T03:04:50;3.00;;;2.70;;
63218;SDS011;49320;52.512;13.448;2023-07-30T03:07:20;5.40;;;2.85;;
63218;SDS011;49320;52.512;13.448;2023-07-30T03:09:47;3.08;;;2.78;;
63218;SDS011;49320;52.512;13.448;2023-07-30T03:12:15;3.42;;;3.13;;
63218;SDS011;49320;52.512;13.448;2023-07-30T03:14:42;3.38;;;2.80;;
63218;SDS011;49320;52.512;13.448;2023-07-30T03:17:09;3.88;;;3.10;;
63218;SDS011;49320;52.512;13.448;2023-07-30T03:19:36;3.85;;;3.28;;
63218;SDS011;49320;52.512;13.448;2023-07-30T03:22:03;3.90;;;3.03;;
63218;SDS011;49320;52.512;13.448;2023-07-30T03:24:30;3.53;;;2.80;;
63218;SDS011;49320;52.512;13.448;2023-07-30T03:26:58;3.53;;;3.22;;
63218;SDS011;49320;52.512;13.448;2023-07-30T03:29:24;3.28;;;2.85;;
63218;SDS011;49320;52.512;13.448;2023-07-30T03:31:51;3.22;;;2.85;;
63218;SDS011;49320;52.512;13.448;2023-07-30T03:34:18;3.35;;;2.70;;
63218;SDS011;49320;52.512;13.448;2023-07-30T03:36:45;3.03;;;2.72;;
63218;SDS011;49320;52.512;13.448;2023-07-30T03:39:12;2.92;;;2.63;;
63218;SDS011;49320;52.512;13.448;2023-07-30T03:41:39;3.33;;;3.00;;
63218;SDS011;49320;52.512;13.448;2023-07-30T03:44:06;3.50;;;3.10;;
63218;SDS011;49320;52.512;13.448;2023-07-30T03:46:34;3.50;;;3.20;;
63218;SDS011;49320;52.512;13.448;2023-07-30T03:49:01;3.03;;;2.72;;
63218;SDS011;49320;52.512;13.448;2023-07-30T03:51:28;2.80;;;2.50;;
63218;SDS011;49320;52.512;13.448;2023-07-30T03:53:55;3.40;;;3.10;;
63218;SDS011;49320;52.512;13.448;2023-07-30T03:56:22;3.42;;;3.13;;
63218;SDS011;49320;52.512;13.448;2023-07-30T03:58:49;3.30;;;2.97;;
63218;SDS011;49320;52.512;13.448;2023-07-30T04:01:16;3.38;;;3.08;;
63218;SDS011;49320;52.512;13.448;2023-07-30T04:03:43;5.22;;;3.10;;
63218;SDS011;49320;52.512;13.448;2023-07-30T04:06:10;2.92;;;2.60;;
63218;SDS011;49320;52.512;13.448;2023-07-30T04:08:37;3.42;;;2.63;;
63218;SDS011;49320;52.512;13.448;2023-07-30T04:11:04;4.35;;;3.05;;
63218;SDS011;49320;52.512;13.448;2023-07-30T04:13:31;3.53;;;3.20;;
63218;SDS011;49320;52.512;13.448;2023-07-30T04:15:58;3.95;;;3.05;;
63218;SDS011;49320;52.512;13.448;2023-07-30T04:18:25;3.88;;;3.13;;
63218;SDS011;49320;52.512;13.448;2023-07-30T04:20:55;3.25;;;2.95;;
63218;SDS011;49320;52.512;13.448;2023-07-30T04:23:22;3.20;;;2.90;;
63218;SDS011;49320;52.512;13.448;2023-07-30T04:25:50;3.35;;;2.95;;
63218;SDS011;49320;52.512;13.448;2023-07-30T04:28:17;3.30;;;2.72;;
63218;SDS011;49320;52.512;13.448;2023-07-30T04:30:44;3.42;;;3.08;;
63218;SDS011;49320;52.512;13.448;2023-07-30T04:33:13;3.50;;;2.95;;
63218;SDS011;49320;52.512;13.448;2023-07-30T04:35:43;3.42;;;3.13;;
63218;SDS011;49320;52.512;13.448;2023-07-30T04:38:10;3.40;;;3.10;;
63218;SDS011;49320;52.512;13.448;2023-07-30T04:40:37;3.78;;;2.70;;
63218;SDS011;49320;52.512;13.448;2023-07-30T04:43:05;3.17;;;2.92;;
63218;SDS011;49320;52.512;13.448;2023-07-30T04:45:33;4.07;;;3.25;;
63218;SDS011;49320;52.512;13.448;2023-07-30T04:48:00;4.43;;;3.03;;
63218;SDS011;49320;52.512;13.448;2023-07-30T04:50:27;3.33;;;3.00;;
63218;SDS011;49320;52.512;13.448;2023-07-30T04:52:54;3.63;;;3.33;;
63218;SDS011;49320;52.512;13.448;2023-07-30T04:55:22;3.65;;;3.30;;
63218;SDS011;49320;52.512;13.448;2023-07-30T04:57:49;4.28;;;3.58;;
63218;SDS011;49320;52.512;13.448;2023-07-30T05:00:16;3.60;;;3.30;;
63218;SDS011;49320;52.512;13.448;2023-07-30T05:02:43;3.75;;;3.38;;
63218;SDS011;49320;52.512;13.448;2023-07-30T05:05:10;6.00;;;3.10;;
63218;SDS011;49320;52.512;13.448;2023-07-30T05:07:38;3.67;;;3.38;;
63218;SDS011;49320;52.512;13.448;2023-07-30T05:10:05;3.03;;;2.72;;
63218;SDS011;49320;52.512;13.448;2023-07-30T05:12:36;3.20;;;2.83;;
63218;SDS011;49320;52.512;13.448;2023-07-30T05:15:04;2.90;;;2.70;;
63218;SDS011;49320;52.512;13.448;2023-07-30T05:17:32;4.30;;;3.35;;
63218;SDS011;49320;52.512;13.448;2023-07-30T05:19:59;3.78;;;3.08;;
63218;SDS011;49320;52.512;13.448;2023-07-30T05:22:26;3.17;;;2.88;;
63218;SDS011;49320;52.512;13.448;2023-07-30T05:24:53;3.30;;;3.00;;
63218;SDS011;49320;52.512;13.448;2023-07-30T05:27:20;3.22;;;2.90;;
63218;SDS011;49320;52.512;13.448;2023-07-30T05:29:47;3.55;;;2.65;;
63218;SDS011;49320;52.512;13.448;2023-07-30T05:32:15;3.53;;;3.22;;
63218;SDS011;49320;52.512;13.448;2023-07-30T05:34:43;3.38;;;2.83;;
63218;SDS011;49320;52.512;13.448;2023-07-30T05:37:09;4.15;;;3.10;;
63218;SDS011;49320;52.512;13.448;2023-07-30T05:39:37;3.40;;;3.08;;
63218;SDS011;49320;52.512;13.448;2023-07-30T05:42:04;4.30;;;2.88;;
63218;SDS011;49320;52.512;13.448;2023-07-30T05:44:31;2.95;;;2.67;;
63218;SDS011;49320;52.512;13.448;2023-07-30T05:46:58;3.10;;;2.75;;
63218;SDS011;49320;52.512;13.448;2023-07-30T05:49:25;2.83;;;2.63;;
63218;SDS011;49320;52.512;13.448;2023-07-30T05:51:53;2.55;;;2.35;;
63218;SDS011;49320;52.512;13.448;2023-07-30T05:54:19;2.40;;;2.08;;
63218;SDS011;49320;52.512;13.448;2023-07-30T05:56:47;4.38;;;2.08;;
63218;SDS011;49320;52.512;13.448;2023-07-30T05:59:13;2.33;;;2.13;;
63218;SDS011;49320;52.512;13.448;2023-07-30T06:01:45;2.80;;;2.53;;
63218;SDS011;49320;52.512;13.448;2023-07-30T06:04:12;3.42;;;2.72;;
63218;SDS011;49320;52.512;13.448;2023-07-30T06:06:39;3.97;;;2.58;;
63218;SDS011;49320;52.512;13.448;2023-07-30T06:09:07;2.40;;;2.20;;
63218;SDS011;49320;52.512;13.448;2023-07-30T06:11:34;4.53;;;2.47;;
63218;SDS011;49320;52.512;13.448;2023-07-30T06:14:01;2.40;;;2.20;;
63218;SDS011;49320;52.512;13.448;2023-07-30T06:16:29;2.40;;;2.20;;
63218;SDS011;49320;52.512;13.448;2023-07-30T06:18:56;3.95;;;2.00;;
63218;SDS011;49320;52.512;13.448;2023-07-30T06:21:23;3.88;;;2.30;;
63218;SDS011;49320;52.512;13.448;2023-07-30T06:23:50;2.95;;;2.00;;
63218;SDS011;49320;52.512;13.448;2023-07-30T06:26:17;2.10;;;1.90;;
63218;SDS011;49320;52.512;13.448;2023-07-30T06:28:44;2.33;;;2.13;;
63218;SDS011;49320;52.512;13.448;2023-07-30T06:31:11;2.25;;;2.05;;
63218;SDS011;49320;52.512;13.448;2023-07-30T06:33:38;2.92;;;2.63;;
63218;SDS011;49320;52.512;13.448;2023-07-30T06:36:05;2.40;;;1.83;;
63218;SDS011;49320;52.512;13.448;2023-07-30T06:38:32;2.22;;;2.03;;
63218;SDS011;49320;52.512;13.448;2023-07-30T06:41:03;2.00;;;1.83;;
63218;SDS011;49320;52.512;13.448;2023-07-30T06:43:30;3.03;;;2.45;;
63218;SDS011;49320;52.512;13.448;2023-07-30T06:45:57;2.05;;;1.85;;
63218;SDS011;49320;52.512;13.448;2023-07-30T06:48:24;2.45;;;2.25;;
63218;SDS011;49320;52.512;13.448;2023-07-30T06:50:52;2.20;;;2.00;;
63218;SDS011;49320;52.512;13.448;2023-07-30T06:53:19;1.95;;;1.73;;
63218;SDS011;49320;52.512;13.448;2023-07-30T06:55:45;1.77;;;1.67;;
63218;SDS011;49320;52.512;13.448;2023-07-30T06:58:12;1.92;;;1.70;;
63218;SDS011;49320;52.512;13.448;2023-07-30T07:00:40;1.92;;;1.73;;
63218;SDS011;49320;52.512;13.448;2023-07-30T07:03:07;2.15;;;1.95;;
63218;SDS011;49320;52.512;13.448;2023-07-30T07:05:35;2.30;;;2.08;;
63218;SDS011;49320;52.512;13.448;2023-07-30T07:08:02;2.25;;;2.05;;
63218;SDS011;49320;52.512;13.448;2023-07-30T07:10:29;2.45;;;1.85;;
63218;SDS011;49320;52.512;13.448;2023-07-30T07:12:56;2.40;;;1.88;;
63218;SDS011;49320;52.512;13.448;2023-07-30T07:15:23;1.98;;;1.77;;
63218;SDS011;49320;52.512;13.448;2023-07-30T07:17:50;2.00;;;1.77;;
63218;SDS011;49320;52.512;13.448;2023-07-30T07:20:17;2.80;;;2.50;;
63218;SDS011;49320;52.512;13.448;2023-07-30T07:22:44;3.42;;;1.80;;
63218;SDS011;49320;52.512;13.448;2023-07-30T07:25:11;2.75;;;1.90;;
63218;SDS011;49320;52.512;13.448;2023-07-30T07:27:39;1.98;;;1.77;;
63218;SDS011;49320;52.512;13.448;2023-07-30T07:30:06;2.38;;;2.03;;
63218;SDS011;49320;52.512;13.448;2023-07-30T07:32:34;2.38;;;2.17;;
63218;SDS011;49320;52.512;13.448;2023-07-30T07:35:04;2.63;;;2.30;;
63218;SDS011;49320;52.512;13.448;2023-07-30T07:37:32;4.60;;;2.20;;
63218;SDS011;49320;52.512;13.448;2023-07-30T07:39:59;2.47;;;2.08;;
63218;SDS011;49320;52.512;13.448;2023-07-30T07:42:26;4.72;;;2.05;;
63218;SDS011;49320;52.512;13.448;2023-07-30T07:44:54;2.55;;;1.98;;
63218;SDS011;49320;52.512;13.448;2023-07-30T07:47:22;2.20;;;1.95;;
63218;SDS011;49320;52.512;13.448;2023-07-30T07:49:49;2.42;;;1.95;;
63218;SDS011;49320;52.512;13.448;2023-07-30T07:52:16;2.38;;;2.17;;
63218;SDS011;49320;52.512;13.448;2023-07-30T07:54:44;2.10;;;1.90;;
63218;SDS011;49320;52.512;13.448;2023-07-30T07:57:11;2.08;;;1.73;;
63218;SDS011;49320;52.512;13.448;2023-07-30T07:59:38;2.22;;;2.00;;
63218;SDS011;49320;52.512;13.448;2023-07-30T08:02:07;2.67;;;2.10;;
63218;SDS011;49320;52.512;13.448;2023-07-30T08:04:34;2.08;;;1.88;;
63218;SDS011;49320;52.512;13.448;2023-07-30T08:07:02;2.25;;;1.75;;
63218;SDS011;49320;52.512;13.448;2023-07-30T08:09:30;2.10;;;1.90;;
63218;SDS011;49320;52.512;13.448;2023-07-30T08:11:58;2.03;;;1.83;;
63218;SDS011;49320;52.512;13.448;2023-07-30T08:14:26;2.65;;;1.77;;
63218;SDS011;49320;52.512;13.448;2023-07-30T08:16:53;2.35;;;1.70;;
63218;SDS011;49320;52.512;13.448;2023-07-30T08:19:20;2.65;;;1.88;;
63218;SDS011;49320;52.512;13.448;2023-07-30T08:21:47;2.80;;;2.30;;
63218;SDS011;49320;52.512;13.448;2023-07-30T08:24:15;3.08;;;1.70;;
63218;SDS011;49320;52.512;13.448;2023-07-30T08:26:42;2.25;;;2.05;;
63218;SDS011;49320;52.512;13.448;2023-07-30T08:29:09;2.55;;;1.95;;
63218;SDS011;49320;52.512;13.448;2023-07-30T08:31:40;1.98;;;1.67;;
63218;SDS011;49320;52.512;13.448;2023-07-30T08:34:07;3.85;;;1.95;;
63218;SDS011;49320;52.512;13.448;2023-07-30T08:36:35;3.42;;;1.75;;
63218;SDS011;49320;52.512;13.448;2023-07-30T08:39:02;2.42;;;1.90;;
63218;SDS011;49320;52.512;13.448;2023-07-30T08:41:30;2.30;;;2.10;;
63218;SDS011;49320;52.512;13.448;2023-07-30T08:43:58;3.85;;;2.25;;
63218;SDS011;49320;52.512;13.448;2023-07-30T08:46:25;3.10;;;1.95;;
63218;SDS011;49320;52.512;13.448;2023-07-30T08:48:53;3.70;;;2.35;;
63218;SDS011;49320;52.512;13.448;2023-07-30T08:51:21;2.33;;;1.88;;
63218;SDS011;49320;52.512;13.448;2023-07-30T08:53:49;3.10;;;2.20;;
63218;SDS011;49320;52.512;13.448;2023-07-30T08:56:17;2.90;;;2.30;;
63218;SDS011;49320;52.512;13.448;2023-07-30T08:58:44;2.05;;;1.80;;
63218;SDS011;49320;52.512;13.448;2023-07-30T09:01:17;2.53;;;2.10;;
63218;SDS011;49320;52.512;13.448;2023-07-30T09:03:46;2.28;;;1.80;;
63218;SDS011;49320;52.512;13.448;2023-07-30T09:06:16;2.83;;;2.00;;
63218;SDS011;49320;52.512;13.448;2023-07-30T09:08:44;2.63;;;2.13;;
63218;SDS011;49320;52.512;13.448;2023-07-30T09:11:11;3.15;;;2.33;;
63218;SDS011;49320;52.512;13.448;2023-07-30T09:13:38;3.00;;;2.20;;
63218;SDS011;49320;52.512;13.448;2023-07-30T09:16:11;2.33;;;2.10;;
63218;SDS011;49320;52.512;13.448;2023-07-30T09:18:44;2.33;;;2.00;;
63218;SDS011;49320;52.512;13.448;2023-07-30T09:21:13;2.50;;;2.10;;
63218;SDS011;49320;52.512;13.448;2023-07-30T09:23:41;3.35;;;2.17;;
63218;SDS011;49320;52.512;13.448;2023-07-30T09:26:12;3.00;;;1.83;;
63218;SDS011;49320;52.512;13.448;2023-07-30T09:28:40;2.75;;;1.90;;
63218;SDS011;49320;52.512;13.448;2023-07-30T09:31:07;3.10;;;2.00;;
63218;SDS011;49320;52.512;13.448;2023-07-30T09:33:41;2.22;;;2.00;;
63218;SDS011;49320;52.512;13.448;2023-07-30T09:36:08;2.30;;;1.90;;
63218;SDS011;49320;52.512;13.448;2023-07-30T09:38:39;2.30;;;2.00;;
63218;SDS011;49320;52.512;13.448;2023-07-30T09:41:08;3.40;;;2.30;;
63218;SDS011;49320;52.512;13.448;2023-07-30T09:43:37;2.42;;;2.05;;
63218;SDS011;49320;52.512;13.448;2023-07-30T09:46:05;2.38;;;1.67;;
63218;SDS011;49320;52.512;13.448;2023-07-30T09:48:33;2.75;;;1.85;;
63218;SDS011;49320;52.512;13.448;2023-07-30T09:51:01;5.00;;;3.20;;
63218;SDS011;49320;52.512;13.448;2023-07-30T09:53:30;2.42;;;2.22;;
63218;SDS011;49320;52.512;13.448;2023-07-30T09:56:02;2.38;;;1.67;;
63218;SDS011;49320;52.512;13.448;2023-07-30T09:58:30;3.08;;;1.88;;
63218;SDS011;49320;52.512;13.448;2023-07-30T10:00:57;3.13;;;1.90;;
63218;SDS011;49320;52.512;13.448;2023-07-30T10:03:26;2.92;;;1.73;;
63218;SDS011;49320;52.512;13.448;2023-07-30T10:05:59;4.85;;;1.80;;
63218;SDS011;49320;52.512;13.448;2023-07-30T10:08:31;2.95;;;1.80;;
63218;SDS011;49320;52.512;13.448;2023-07-30T10:11:04;3.28;;;2.00;;
63218;SDS011;49320;52.512;13.448;2023-07-30T10:13:35;2.50;;;1.90;;
63218;SDS011;49320;52.512;13.448;2023-07-30T10:16:08;1.98;;;1.73;;
63218;SDS011;49320;52.512;13.448;2023-07-30T10:18:39;3.10;;;1.95;;
63218;SDS011;49320;52.512;13.448;2023-07-30T10:21:07;2.25;;;1.67;;
63218;SDS011;49320;52.512;13.448;2023-07-30T10:23:36;3.63;;;1.92;;
63218;SDS011;49320;52.512;13.448;2023-07-30T10:26:13;1.88;;;1.60;;
63218;SDS011;49320;52.512;13.448;2023-07-30T10:28:40;2.38;;;1.60;;
63218;SDS011;49320;52.512;13.448;2023-07-30T10:31:09;2.80;;;2.03;;
63218;SDS011;49320;52.512;13.448;2023-07-30T10:36:18;2.70;;;1.75;;
63218;SDS011;49320;52.512;13.448;2023-07-30T10:39:19;3.13;;;1.88;;
63218;SDS011;49320;52.512;13.448;2023-07-30T10:41:53;2.15;;;1.58;;
63218;SDS011;49320;52.512;13.448;2023-07-30T10:44:23;1.75;;;1.63;;
63218;SDS011;49320;52.512;13.448;2023-07-30T10:46:57;1.95;;;1.67;;
63218;SDS011;49320;52.512;13.448;2023-07-30T10:49:26;3.85;;;1.80;;
63218;SDS011;49320;52.512;13.448;2023-07-30T10:51:56;2.60;;;2.05;;
63218;SDS011;49320;52.512;13.448;2023-07-30T10:54:23;1.80;;;1.70;;
63218;SDS011;49320;52.512;13.448;2023-07-30T10:56:51;1.92;;;1.70;;
63218;SDS011;49320;52.512;13.448;2023-07-30T10:59:20;2.35;;;1.60;;
63218;SDS011;49320;52.512;13.448;2023-07-30T11:01:47;2.70;;;1.70;;
63218;SDS011;49320;52.512;13.448;2023-07-30T11:04:16;2.50;;;1.88;;
63218;SDS011;49320;52.512;13.448;2023-07-30T11:06:49;2.63;;;1.88;;
63218;SDS011;49320;52.512;13.448;2023-07-30T11:09:18;2.13;;;1.85;;
63218;SDS011;49320;52.512;13.448;2023-07-30T11:11:50;2.60;;;1.73;;
63218;SDS011;49320;52.512;13.448;2023-07-30T11:14:19;2.17;;;1.75;;
63218;SDS011;49320;52.512;13.448;2023-07-30T11:16:56;3.58;;;1.77;;
63218;SDS011;49320;52.512;13.448;2023-07-30T11:19:26;2.70;;;1.75;;
63218;SDS011;49320;52.512;13.448;2023-07-30T11:21:54;5.18;;;1.42;;
63218;SDS011;49320;52.512;13.448;2023-07-30T11:24:36;2.42;;;1.65;;
63218;SDS011;49320;52.512;13.448;2023-07-30T11:27:04;3.83;;;1.83;;
63218;SDS011;49320;52.512;13.448;2023-07-30T11:29:32;1.75;;;1.38;;
63218;SDS011;49320;52.512;13.448;2023-07-30T11:31:59;3.30;;;1.75;;
63218;SDS011;49320;52.512;13.448;2023-07-30T11:34:29;3.40;;;1.92;;
63218;SDS011;49320;52.512;13.448;2023-07-30T11:37:02;4.55;;;2.00;;
63218;SDS011;49320;52.512;13.448;2023-07-30T11:39:30;2.90;;;1.88;;
63218;SDS011;49320;52.512;13.448;2023-07-30T11:41:57;2.20;;;1.58;;
63218;SDS011;49320;52.512;13.448;2023-07-30T11:44:31;1.80;;;1.60;;
63218;SDS011;49320;52.512;13.448;2023-07-30T11:47:01;2.60;;;1.67;;
63218;SDS011;49320;52.512;13.448;2023-07-30T11:49:30;2.70;;;1.67;;
63218;SDS011;49320;52.512;13.448;2023-07-30T11:52:07;2.88;;;1.60;;
63218;SDS011;49320;52.512;13.448;2023-07-30T11:54:36;3.35;;;2.05;;
63218;SDS011;49320;52.512;13.448;2023-07-30T11:57:03;2.15;;;1.63;;
63218;SDS011;49320;52.512;13.448;2023-07-30T11:59:31;3.22;;;1.92;;
63218;SDS011;49320;52.512;13.448;2023-07-30T12:01:58;2.95;;;1.90;;
63218;SDS011;49320;52.512;13.448;2023-07-30T12:04:29;2.88;;;1.50;;
63218;SDS011;49320;52.512;13.448;2023-07-30T12:07:09;2.55;;;1.70;;
63218;SDS011;49320;52.512;13.448;2023-07-30T12:09:36;6.72;;;3.08;;
63218;SDS011;49320;52.512;13.448;2023-07-30T12:12:04;7.53;;;2.65;;
63218;SDS011;49320;52.512;13.448;2023-07-30T12:14:43;3.33;;;1.63;;
63218;SDS011;49320;52.512;13.448;2023-07-30T12:17:19;3.72;;;1.70;;
63218;SDS011;49320;52.512;13.448;2023-07-30T12:19:47;2.65;;;1.70;;
63218;SDS011;49320;52.512;13.448;2023-07-30T12:22:14;2.40;;;1.80;;
63218;SDS011;49320;52.512;13.448;2023-07-30T12:24:41;3.13;;;1.58;;
63218;SDS011;49320;52.512;13.448;2023-07-30T12:27:09;3.45;;;1.85;;
63218;SDS011;49320;52.512;13.448;2023-07-30T12:29:36;2.35;;;2.00;;
63218;SDS011;49320;52.512;13.448;2023-07-30T12:32:03;2.20;;;1.77;;
63218;SDS011;49320;52.512;13.448;2023-07-30T12:34:30;3.15;;;1.90;;
63218;SDS011;49320;52.512;13.448;2023-07-30T12:36:57;3.97;;;2.05;;
63218;SDS011;49320;52.512;13.448;2023-07-30T12:39:26;2.83;;;1.65;;
63218;SDS011;49320;52.512;13.448;2023-07-30T12:41:53;3.05;;;1.95;;
63218;SDS011;49320;52.512;13.448;2023-07-30T12:44:20;1.85;;;1.48;;
63218;SDS011;49320;52.512;13.448;2023-07-30T12:46:47;2.45;;;1.80;;
63218;SDS011;49320;52.512;13.448;2023-07-30T12:49:15;3.42;;;1.55;;
63218;SDS011;49320;52.512;13.448;2023-07-30T12:51:41;2.78;;;2.15;;
63218;SDS011;49320;52.512;13.448;2023-07-30T12:54:09;3.33;;;1.70;;
63218;SDS011;49320;52.512;13.448;2023-07-30T12:56:36;4.75;;;2.08;;
63218;SDS011;49320;52.512;13.448;2023-07-30T12:59:03;3.20;;;1.90;;
63218;SDS011;49320;52.512;13.448;2023-07-30T13:01:30;2.22;;;1.73;;
63218;SDS011;49320;52.512;13.448;2023-07-30T13:03:57;3.85;;;2.28;;
63218;SDS011;49320;52.512;13.448;2023-07-30T13:06:24;3.13;;;1.73;;
63218;SDS011;49320;52.512;13.448;2023-07-30T13:08:51;4.82;;;2.05;;
63218;SDS011;49320;52.512;13.448;2023-07-30T13:11:20;3.13;;;2.00;;
63218;SDS011;49320;52.512;13.448;2023-07-30T13:13:47;3.55;;;1.90;;
63218;SDS011;49320;52.512;13.448;2023-07-30T13:16:14;2.40;;;1.77;;
63218;SDS011;49320;52.512;13.448;2023-07-30T13:18:41;3.42;;;2.03;;
63218;SDS011;49320;52.512;13.448;2023-07-30T13:21:09;2.53;;;2.20;;
63218;SDS011;49320;52.512;13.448;2023-07-30T13:23:36;3.55;;;2.10;;
63218;SDS011;49320;52.512;13.448;2023-07-30T13:26:03;2.80;;;2.05;;
63218;SDS011;49320;52.512;13.448;2023-07-30T13:28:31;3.85;;;2.00;;
63218;SDS011;49320;52.512;13.448;2023-07-30T13:30:59;3.30;;;2.00;;
63218;SDS011;49320;52.512;13.448;2023-07-30T13:33:26;3.40;;;2.40;;
63218;SDS011;49320;52.512;13.448;2023-07-30T13:35:53;3.67;;;2.10;;
63218;SDS011;49320;52.512;13.448;2023-07-30T13:38:20;2.92;;;1.80;;
63218;SDS011;49320;52.512;13.448;2023-07-30T13:40:48;2.90;;;1.98;;
63218;SDS011;49320;52.512;13.448;2023-07-30T13:43:15;2.88;;;2.00;;
63218;SDS011;49320;52.512;13.448;2023-07-30T13:45:42;2.67;;;1.90;;
63218;SDS011;49320;52.512;13.448;2023-07-30T13:48:10;2.03;;;1.83;;
63218;SDS011;49320;52.512;13.448;2023-07-30T13:50:37;4.43;;;2.30;;
63218;SDS011;49320;52.512;13.448;2023-07-30T13:53:04;2.47;;;1.90;;
63218;SDS011;49320;52.512;13.448;2023-07-30T13:55:32;2.38;;;1.80;;
63218;SDS011;49320;52.512;13.448;2023-07-30T13:57:59;3.05;;;1.63;;
63218;SDS011;49320;52.512;13.448;2023-07-30T14:00:26;2.17;;;1.60;;
63218;SDS011;49320;52.512;13.448;2023-07-30T14:02:53;5.22;;;2.10;;
63218;SDS011;49320;52.512;13.448;2023-07-30T14:05:20;3.00;;;1.70;;
63218;SDS011;49320;52.512;13.448;2023-07-30T14:07:47;2.55;;;1.65;;
63218;SDS011;49320;52.512;13.448;2023-07-30T14:10:16;2.15;;;1.60;;
63218;SDS011;49320;52.512;13.448;2023-07-30T14:12:43;1.92;;;1.40;;
63218;SDS011;49320;52.512;13.448;2023-07-30T14:15:10;2.25;;;1.60;;
63218;SDS011;49320;52.512;13.448;2023-07-30T14:17:38;1.98;;;1.30;;
63218;SDS011;49320;52.512;13.448;2023-07-30T14:20:05;1.70;;;1.20;;
63218;SDS011;49320;52.512;13.448;2023-07-30T14:22:34;1.33;;;1.23;;
63218;SDS011;49320;52.512;13.448;2023-07-30T14:25:02;2.00;;;1.48;;
63218;SDS011;49320;52.512;13.448;2023-07-30T14:27:29;1.50;;;1.20;;
63218;SDS011;49320;52.512;13.448;2023-07-30T14:29:56;2.25;;;1.55;;
63218;SDS011;49320;52.512;13.448;2023-07-30T14:32:23;1.42;;;1.23;;
63218;SDS011;49320;52.512;13.448;2023-07-30T14:34:50;2.20;;;1.40;;
63218;SDS011;49320;52.512;13.448;2023-07-30T14:37:17;1.73;;;1.40;;
63218;SDS011;49320;52.512;13.448;2023-07-30T14:39:45;2.40;;;1.67;;
63218;SDS011;49320;52.512;13.448;2023-07-30T14:42:12;2.40;;;1.48;;